Time;durP1;ratioP1;P1;durP2;ratioP2;P2;SDS_P1;SDS_P2;PMS_P1;PMS_P2;Temp;Humidity;BMP_temperature;BMP_pressure;BME280_temperature;BME280_humidity;BME280_pressure;Samples;Min_cycle;Max_cycle;Signal;HPM_P1;HPM_P2
2021/08/06 00:02:25;;;;;;;24.85;16.20;;;;;;;;;;5007756;28;20108;-57
2021/08/06 00:04:51;;;;;;;24.02;16.40;;;;;;;;;;5008632;28;20067;-57
2021/08/06 00:07:16;;;;;;;27.30;16.90;;;;;;;;;;5005709;28;20061;-57
2021/08/06 00:09:42;;;;;;;23.30;15.43;;;;;;;;;;5007006;28;20057;-57
2021/08/06 00:12:08;;;;;;;24.02;15.18;;;;;;;;;;4997775;28;20046;-58
2021/08/06 00:14:34;;;;;;;23.90;14.88;;;;;;;;;;5008345;28;20045;-57
2021/08/06 00:17:00;;;;;;;24.38;15.32;;;;;;;;;;4990088;28;20068;-57
2021/08/06 00:19:26;;;;;;;21.35;15.15;;;;;;;;;;5007333;28;20983;-55
2021/08/06 00:21:52;;;;;;;24.30;15.00;;;;;;;;;;5006445;28;20038;-57
2021/08/06 00:24:18;;;;;;;23.70;15.15;;;;;;;;;;5007484;28;20045;-57
2021/08/06 00:26:44;;;;;;;20.27;13.98;;;;;;;;;;5005290;28;20548;-60
2021/08/06 00:29:09;;;;;;;22.58;15.05;;;;;;;;;;5006973;28;20042;-59
2021/08/06 00:31:36;;;;;;;21.90;15.15;;;;;;;;;;5005529;28;20041;-58
2021/08/06 00:34:02;;;;;;;24.90;15.13;;;;;;;;;;5008567;28;20057;-58
2021/08/06 00:36:28;;;;;;;22.92;14.70;;;;;;;;;;5005939;28;20049;-59
2021/08/06 00:38:53;;;;;;;24.33;14.77;;;;;;;;;;5007350;28;20037;-59
2021/08/06 00:41:19;;;;;;;25.20;14.27;;;;;;;;;;4991700;28;20224;-59
2021/08/06 00:43:45;;;;;;;22.70;15.20;;;;;;;;;;5006554;28;20499;-57
2021/08/06 00:46:13;;;;;;;20.95;14.40;;;;;;;;;;5008399;28;20034;-57
2021/08/06 00:48:40;;;;;;;22.73;14.18;;;;;;;;;;5006288;28;20056;-57
2021/08/06 00:51:06;;;;;;;20.85;14.63;;;;;;;;;;5005395;28;20029;-58
2021/08/06 00:53:32;;;;;;;21.58;14.10;;;;;;;;;;5004507;28;20629;-58
2021/08/06 00:55:58;;;;;;;22.38;14.68;;;;;;;;;;5008553;28;20052;-57
2021/08/06 00:58:23;;;;;;;21.60;14.52;;;;;;;;;;5006053;28;20572;-57
2021/08/06 01:00:49;;;;;;;21.67;14.27;;;;;;;;;;5007712;28;20673;-56
2021/08/06 01:03:25;;;;;;;26.70;15.00;;;;;;;;;;5004724;28;20018;-57
2021/08/06 01:06:17;;;;;;;19.42;14.43;;;;;;;;;;5007319;28;20053;-57
2021/08/06 01:08:46;;;;;;;22.75;14.93;;;;;;;;;;5002089;28;20053;-57
2021/08/06 01:11:14;;;;;;;21.55;15.43;;;;;;;;;;5005994;28;20049;-56
2021/08/06 01:13:40;;;;;;;25.38;15.23;;;;;;;;;;5006931;28;20112;-55
2021/08/06 01:16:08;;;;;;;26.98;16.05;;;;;;;;;;5005862;28;20049;-57
2021/08/06 01:18:34;;;;;;;26.33;15.98;;;;;;;;;;5004509;28;20116;-56
2021/08/06 01:21:09;;;;;;;27.30;16.08;;;;;;;;;;5006289;28;20041;-57
2021/08/06 01:23:35;;;;;;;24.58;16.13;;;;;;;;;;5004658;28;20044;-57
2021/08/06 01:26:03;;;;;;;29.75;16.92;;;;;;;;;;5004572;28;20073;-56
2021/08/06 01:28:33;;;;;;;24.52;16.20;;;;;;;;;;5002990;28;20064;-56
2021/08/06 01:30:59;;;;;;;25.23;15.60;;;;;;;;;;5005819;28;20033;-56
2021/08/06 01:33:25;;;;;;;25.88;15.80;;;;;;;;;;5006325;28;20050;-55
2021/08/06 01:35:51;;;;;;;24.60;16.08;;;;;;;;;;5007849;28;20060;-56
2021/08/06 01:38:17;;;;;;;23.92;15.85;;;;;;;;;;5005798;28;20029;-56
2021/08/06 01:40:55;;;;;;;24.98;16.15;;;;;;;;;;5007032;28;20128;-56
2021/08/06 01:43:33;;;;;;;24.25;15.57;;;;;;;;;;5003228;28;20557;-56
2021/08/06 01:46:12;;;;;;;24.00;15.48;;;;;;;;;;5004203;28;20085;-57
2021/08/06 01:48:39;;;;;;;26.92;15.38;;;;;;;;;;5001672;28;20602;-57
2021/08/06 01:51:06;;;;;;;23.98;15.45;;;;;;;;;;5005307;28;20494;-54
2021/08/06 01:53:34;;;;;;;25.00;15.43;;;;;;;;;;5004815;28;20125;-57
2021/08/06 01:56:02;;;;;;;25.25;16.52;;;;;;;;;;5008978;28;20030;-56
2021/08/06 01:58:28;;;;;;;24.48;16.58;;;;;;;;;;5006969;28;20409;-55
2021/08/06 02:00:54;;;;;;;24.88;16.88;;;;;;;;;;5009948;28;20045;-58
2021/08/06 02:03:21;;;;;;;37.83;16.42;;;;;;;;;;5008820;28;20113;-57
2021/08/06 02:05:51;;;;;;;24.20;16.30;;;;;;;;;;5007714;28;20042;-57
2021/08/06 02:08:17;;;;;;;27.80;15.65;;;;;;;;;;5007256;28;20160;-59
2021/08/06 02:10:44;;;;;;;30.05;16.38;;;;;;;;;;5006778;28;20045;-58
2021/08/06 02:13:09;;;;;;;22.70;15.13;;;;;;;;;;5009782;28;20042;-59
2021/08/06 02:15:36;;;;;;;24.13;14.35;;;;;;;;;;5009505;28;20052;-59
2021/08/06 02:18:02;;;;;;;27.50;15.45;;;;;;;;;;5009641;28;20445;-59
2021/08/06 02:20:29;;;;;;;22.75;14.25;;;;;;;;;;5008404;28;20030;-58
2021/08/06 02:22:55;;;;;;;29.52;15.57;;;;;;;;;;5008610;28;20119;-59
2021/08/06 02:25:21;;;;;;;23.08;14.82;;;;;;;;;;5008296;28;20042;-59
2021/08/06 02:27:48;;;;;;;23.48;14.63;;;;;;;;;;4989370;28;20416;-59
2021/08/06 02:30:16;;;;;;;21.55;14.68;;;;;;;;;;5007707;28;20034;-59
2021/08/06 02:32:42;;;;;;;23.80;15.18;;;;;;;;;;5005861;28;20255;-59
2021/08/06 02:35:09;;;;;;;24.48;15.20;;;;;;;;;;5008612;28;20041;-59
2021/08/06 02:37:37;;;;;;;25.92;14.90;;;;;;;;;;5006714;28;20426;-58
2021/08/06 02:40:04;;;;;;;25.05;14.68;;;;;;;;;;5008903;28;20045;-59
2021/08/06 02:42:31;;;;;;;25.45;15.85;;;;;;;;;;5009428;28;20033;-59
2021/08/06 02:44:57;;;;;;;24.77;14.80;;;;;;;;;;5009987;28;20048;-57
2021/08/06 02:47:23;;;;;;;26.90;14.00;;;;;;;;;;5007052;28;20398;-59
2021/08/06 02:49:49;;;;;;;33.78;14.90;;;;;;;;;;5008905;28;20643;-58
2021/08/06 02:52:14;;;;;;;28.50;14.73;;;;;;;;;;5008060;28;20041;-57
2021/08/06 02:54:40;;;;;;;28.50;14.13;;;;;;;;;;5007486;28;20052;-57
2021/08/06 02:57:06;;;;;;;22.27;13.00;;;;;;;;;;5007991;28;20784;-57
2021/08/06 02:59:32;;;;;;;25.08;14.48;;;;;;;;;;5009184;28;20399;-58
2021/08/06 03:01:58;;;;;;;22.05;14.15;;;;;;;;;;5008247;28;20055;-58
2021/08/06 03:04:23;;;;;;;23.80;13.88;;;;;;;;;;5008347;28;20034;-58
2021/08/06 03:06:49;;;;;;;21.70;13.85;;;;;;;;;;5008601;28;20056;-58
2021/08/06 03:09:15;;;;;;;22.80;13.32;;;;;;;;;;5006925;28;20053;-55
2021/08/06 03:11:42;;;;;;;21.52;13.68;;;;;;;;;;5000284;28;20541;-60
2021/08/06 03:14:07;;;;;;;22.00;13.02;;;;;;;;;;5022878;28;20098;-58
2021/08/06 03:16:33;;;;;;;23.55;13.27;;;;;;;;;;5007008;28;20041;-57
2021/08/06 03:18:59;;;;;;;25.38;13.23;;;;;;;;;;5009563;28;20041;-59
2021/08/06 03:21:25;;;;;;;20.90;13.30;;;;;;;;;;5008371;28;20053;-59
2021/08/06 03:23:51;;;;;;;20.52;11.95;;;;;;;;;;5008477;28;20486;-59
2021/08/06 03:26:16;;;;;;;22.63;13.75;;;;;;;;;;5009331;28;20046;-58
2021/08/06 03:28:42;;;;;;;20.02;12.30;;;;;;;;;;5007704;28;20096;-58
2021/08/06 03:31:08;;;;;;;26.23;12.55;;;;;;;;;;5007782;28;20517;-58
2021/08/06 03:33:34;;;;;;;23.48;12.68;;;;;;;;;;5006615;28;20194;-59
2021/08/06 03:36:00;;;;;;;23.42;12.80;;;;;;;;;;5008265;28;20037;-59
2021/08/06 03:38:26;;;;;;;20.67;12.40;;;;;;;;;;5007692;28;20038;-58
2021/08/06 03:40:53;;;;;;;22.63;12.65;;;;;;;;;;5002895;28;20125;-58
2021/08/06 03:43:19;;;;;;;20.40;11.88;;;;;;;;;;5005690;28;20055;-58
2021/08/06 03:45:45;;;;;;;30.88;12.55;;;;;;;;;;5008567;28;20048;-59
2021/08/06 03:48:11;;;;;;;22.08;12.13;;;;;;;;;;5007398;28;20061;-59
2021/08/06 03:50:36;;;;;;;22.30;12.10;;;;;;;;;;5006691;28;20037;-58
2021/08/06 03:53:03;;;;;;;22.90;12.05;;;;;;;;;;5005374;28;20439;-59
2021/08/06 03:55:28;;;;;;;20.60;12.30;;;;;;;;;;5006374;28;20053;-57
2021/08/06 03:57:55;;;;;;;25.98;12.48;;;;;;;;;;5006169;28;20041;-58
2021/08/06 04:00:22;;;;;;;23.58;12.55;;;;;;;;;;5007736;28;20441;-58
2021/08/06 04:02:48;;;;;;;22.25;12.60;;;;;;;;;;5005508;28;20048;-59
2021/08/06 04:05:14;;;;;;;23.13;13.05;;;;;;;;;;5007677;28;20046;-57
2021/08/06 04:07:43;;;;;;;21.80;11.48;;;;;;;;;;5006127;28;20120;-58
2021/08/06 04:10:10;;;;;;;20.75;12.23;;;;;;;;;;5007018;28;20042;-58
2021/08/06 04:12:36;;;;;;;21.52;11.27;;;;;;;;;;5005219;28;20046;-59
2021/08/06 04:15:02;;;;;;;21.35;12.27;;;;;;;;;;5007591;28;20096;-59
2021/08/06 04:17:27;;;;;;;19.35;11.00;;;;;;;;;;5004118;28;20405;-58
2021/08/06 04:19:53;;;;;;;19.17;11.25;;;;;;;;;;5006092;28;20042;-58
2021/08/06 04:22:19;;;;;;;24.50;12.32;;;;;;;;;;5007874;28;20040;-58
2021/08/06 04:24:45;;;;;;;21.10;12.38;;;;;;;;;;5006731;28;20042;-58
2021/08/06 04:27:10;;;;;;;23.38;12.00;;;;;;;;;;5004146;28;20850;-59
2021/08/06 04:29:36;;;;;;;27.83;12.02;;;;;;;;;;5002600;28;20069;-58
2021/08/06 04:32:03;;;;;;;21.05;12.23;;;;;;;;;;5006335;28;20037;-58
2021/08/06 04:34:28;;;;;;;23.63;11.68;;;;;;;;;;5008563;28;20038;-58
2021/08/06 04:36:54;;;;;;;21.23;11.65;;;;;;;;;;5006532;28;20056;-57
2021/08/06 04:39:20;;;;;;;25.25;12.70;;;;;;;;;;5006095;28;20049;-58
2021/08/06 04:41:46;;;;;;;20.83;11.70;;;;;;;;;;5006724;28;20050;-57
2021/08/06 04:44:12;;;;;;;23.25;12.35;;;;;;;;;;5006969;28;20052;-58
2021/08/06 04:46:38;;;;;;;21.48;11.52;;;;;;;;;;5004981;28;20104;-55
2021/08/06 04:49:03;;;;;;;25.88;11.88;;;;;;;;;;5005540;28;20654;-57
2021/08/06 04:51:29;;;;;;;21.67;11.93;;;;;;;;;;5004612;28;20421;-58
2021/08/06 04:53:55;;;;;;;21.75;11.70;;;;;;;;;;5007412;28;20038;-59
2021/08/06 04:56:21;;;;;;;19.65;11.38;;;;;;;;;;5005934;28;20045;-57
2021/08/06 04:58:47;;;;;;;26.70;12.00;;;;;;;;;;5006040;28;20045;-58
2021/08/06 05:01:12;;;;;;;25.45;11.60;;;;;;;;;;5007013;28;20045;-59
2021/08/06 05:03:38;;;;;;;19.30;11.45;;;;;;;;;;5004886;28;20041;-58
2021/08/06 05:06:04;;;;;;;25.35;12.23;;;;;;;;;;4997369;28;20065;-58
2021/08/06 05:08:30;;;;;;;20.52;11.15;;;;;;;;;;5005133;28;20053;-59
2021/08/06 05:10:56;;;;;;;20.17;10.75;;;;;;;;;;5007447;28;20100;-59
2021/08/06 05:13:22;;;;;;;20.65;11.70;;;;;;;;;;5006448;28;20037;-59
2021/08/06 05:15:47;;;;;;;20.52;11.65;;;;;;;;;;5007075;28;20128;-59
2021/08/06 05:18:13;;;;;;;28.73;11.25;;;;;;;;;;5005729;28;20045;-58
2021/08/06 05:20:39;;;;;;;28.23;11.55;;;;;;;;;;5005661;28;20906;-59
2021/08/06 05:23:05;;;;;;;22.50;12.38;;;;;;;;;;5007075;28;20080;-58
2021/08/06 05:25:31;;;;;;;25.75;10.88;;;;;;;;;;5006206;28;20034;-57
2021/08/06 05:27:57;;;;;;;22.33;11.73;;;;;;;;;;5007391;28;20053;-58
2021/08/06 05:30:22;;;;;;;20.42;11.07;;;;;;;;;;5008799;28;20049;-59
2021/08/06 05:32:51;;;;;;;29.05;11.60;;;;;;;;;;5010691;28;20100;-58
2021/08/06 05:35:18;;;;;;;24.63;12.32;;;;;;;;;;5009419;28;20648;-58
2021/08/06 05:37:44;;;;;;;20.73;10.85;;;;;;;;;;5009022;28;20037;-58
2021/08/06 05:40:10;;;;;;;18.15;10.43;;;;;;;;;;5009912;28;20068;-57
2021/08/06 05:42:36;;;;;;;23.88;11.68;;;;;;;;;;5009671;28;20772;-58
2021/08/06 05:45:02;;;;;;;23.80;11.38;;;;;;;;;;5012176;28;20149;-58
2021/08/06 05:47:28;;;;;;;23.55;11.27;;;;;;;;;;5009689;28;20041;-57
2021/08/06 05:49:54;;;;;;;22.88;11.82;;;;;;;;;;5010858;28;20069;-52
2021/08/06 05:52:19;;;;;;;18.85;10.85;;;;;;;;;;5009988;28;20057;-55
2021/08/06 05:54:45;;;;;;;26.13;11.95;;;;;;;;;;5010016;28;20310;-54
2021/08/06 05:57:11;;;;;;;18.17;10.07;;;;;;;;;;5008533;28;20046;-54
2021/08/06 05:59:37;;;;;;;26.98;11.18;;;;;;;;;;5007708;28;20192;-53
2021/08/06 06:02:03;;;;;;;18.02;10.75;;;;;;;;;;5009762;28;20045;-55
2021/08/06 06:04:29;;;;;;;22.05;11.23;;;;;;;;;;4990160;28;20105;-54
2021/08/06 06:06:55;;;;;;;23.55;11.13;;;;;;;;;;5007873;28;20922;-54
2021/08/06 06:09:20;;;;;;;19.40;11.10;;;;;;;;;;5007319;28;20045;-56
2021/08/06 06:11:46;;;;;;;16.55;9.75;;;;;;;;;;5008491;28;20135;-56
2021/08/06 06:14:14;;;;;;;21.92;11.43;;;;;;;;;;5009360;28;20506;-55
2021/08/06 06:16:40;;;;;;;22.88;11.15;;;;;;;;;;5010708;28;20841;-55
2021/08/06 06:19:06;;;;;;;19.95;10.95;;;;;;;;;;5009306;28;20038;-55
2021/08/06 06:21:32;;;;;;;20.73;10.98;;;;;;;;;;5010538;28;20049;-56
2021/08/06 06:23:58;;;;;;;22.58;11.52;;;;;;;;;;5008806;28;20449;-56
2021/08/06 06:26:24;;;;;;;22.25;11.90;;;;;;;;;;5008060;28;20396;-56
2021/08/06 06:28:50;;;;;;;23.75;12.13;;;;;;;;;;5009068;28;20049;-55
2021/08/06 06:31:16;;;;;;;19.50;11.20;;;;;;;;;;5008062;28;20042;-56
2021/08/06 06:33:41;;;;;;;19.80;10.75;;;;;;;;;;5007655;28;20420;-56
2021/08/06 06:36:07;;;;;;;21.23;11.00;;;;;;;;;;5007978;28;20038;-55
2021/08/06 06:38:33;;;;;;;27.45;11.65;;;;;;;;;;5008123;28;20052;-54
2021/08/06 06:40:59;;;;;;;22.55;11.30;;;;;;;;;;5008446;28;20104;-52
2021/08/06 06:43:25;;;;;;;17.73;10.35;;;;;;;;;;5007656;28;20390;-55
2021/08/06 06:45:51;;;;;;;21.73;10.68;;;;;;;;;;5010217;28;20096;-55
2021/08/06 06:48:16;;;;;;;29.80;12.55;;;;;;;;;;5008352;28;20076;-56
2021/08/06 06:50:42;;;;;;;21.55;11.48;;;;;;;;;;5009549;28;20045;-54
2021/08/06 06:53:08;;;;;;;24.58;11.75;;;;;;;;;;5009100;28;20033;-55
2021/08/06 06:55:34;;;;;;;19.90;11.02;;;;;;;;;;5007873;28;20053;-56
2021/08/06 06:58:00;;;;;;;19.98;10.60;;;;;;;;;;5010119;28;20046;-54
2021/08/06 07:00:27;;;;;;;19.90;11.32;;;;;;;;;;5008604;28;20041;-55
2021/08/06 07:02:52;;;;;;;23.15;11.38;;;;;;;;;;5009090;28;20124;-55
2021/08/06 07:05:19;;;;;;;20.92;10.70;;;;;;;;;;5009331;28;20441;-55
2021/08/06 07:07:44;;;;;;;19.63;10.90;;;;;;;;;;5007709;28;20045;-55
2021/08/06 07:10:11;;;;;;;22.13;10.73;;;;;;;;;;5007069;28;20072;-53
2021/08/06 07:12:37;;;;;;;21.05;11.13;;;;;;;;;;5007116;28;20030;-53
2021/08/06 07:15:04;;;;;;;21.42;10.63;;;;;;;;;;5009533;28;20070;-55
2021/08/06 07:17:33;;;;;;;21.00;11.85;;;;;;;;;;5008794;28;20040;-55
2021/08/06 07:19:59;;;;;;;23.00;11.82;;;;;;;;;;5007896;28;20050;-55
2021/08/06 07:22:26;;;;;;;22.70;11.50;;;;;;;;;;4993033;28;20040;-56
2021/08/06 07:24:52;;;;;;;24.85;11.10;;;;;;;;;;5007733;28;20052;-56
2021/08/06 07:27:17;;;;;;;22.08;11.57;;;;;;;;;;5007676;28;20057;-55
2021/08/06 07:29:43;;;;;;;19.10;10.93;;;;;;;;;;5006185;28;20133;-55
2021/08/06 07:32:09;;;;;;;19.90;11.90;;;;;;;;;;5009237;28;20050;-55
2021/08/06 07:34:35;;;;;;;20.05;11.30;;;;;;;;;;5008464;28;20121;-55
2021/08/06 07:37:01;;;;;;;22.73;10.68;;;;;;;;;;5009479;28;20261;-55
2021/08/06 07:39:26;;;;;;;22.30;11.15;;;;;;;;;;5006433;28;20045;-56
2021/08/06 07:41:52;;;;;;;30.08;11.77;;;;;;;;;;5007706;28;20038;-57
2021/08/06 07:44:18;;;;;;;22.27;11.02;;;;;;;;;;5006851;28;20783;-56
2021/08/06 07:46:44;;;;;;;21.75;10.90;;;;;;;;;;5008013;28;20088;-53
2021/08/06 07:49:10;;;;;;;25.42;11.32;;;;;;;;;;5008026;28;20955;-56
2021/08/06 07:51:37;;;;;;;21.75;12.10;;;;;;;;;;5005382;28;20034;-56
2021/08/06 07:54:03;;;;;;;19.98;11.43;;;;;;;;;;5008173;28;20112;-55
2021/08/06 07:56:29;;;;;;;21.98;11.40;;;;;;;;;;5006217;28;20045;-55
2021/08/06 07:58:55;;;;;;;25.92;11.10;;;;;;;;;;5008483;28;20049;-55
2021/08/06 08:01:21;;;;;;;33.05;12.07;;;;;;;;;;5006070;28;20044;-56
2021/08/06 08:03:47;;;;;;;28.02;12.18;;;;;;;;;;5006258;28;20402;-55
2021/08/06 08:06:13;;;;;;;30.20;12.60;;;;;;;;;;5006635;28;20048;-56
2021/08/06 08:08:39;;;;;;;23.23;12.02;;;;;;;;;;5006086;28;20486;-56
2021/08/06 08:11:05;;;;;;;29.70;13.18;;;;;;;;;;5006846;28;20069;-55
2021/08/06 08:13:30;;;;;;;21.33;11.02;;;;;;;;;;5007465;28;20034;-56
2021/08/06 08:15:56;;;;;;;23.02;11.45;;;;;;;;;;5006523;28;20049;-56
2021/08/06 08:18:22;;;;;;;21.15;11.40;;;;;;;;;;5007437;28;20041;-53
2021/08/06 08:20:48;;;;;;;24.60;13.07;;;;;;;;;;5007854;28;20042;-56
2021/08/06 08:23:14;;;;;;;23.50;12.20;;;;;;;;;;5007966;28;20077;-55
2021/08/06 08:25:40;;;;;;;30.20;12.75;;;;;;;;;;5006758;28;20046;-55
2021/08/06 08:28:06;;;;;;;19.73;10.77;;;;;;;;;;5006175;28;20061;-56
2021/08/06 08:30:32;;;;;;;23.63;12.57;;;;;;;;;;5006578;28;20037;-53
2021/08/06 08:32:58;;;;;;;20.45;11.77;;;;;;;;;;5006896;28;20037;-55
2021/08/06 08:35:24;;;;;;;21.63;12.00;;;;;;;;;;5008036;28;20463;-55
2021/08/06 08:37:49;;;;;;;23.00;11.75;;;;;;;;;;5007551;28;20453;-55
2021/08/06 08:40:15;;;;;;;26.83;12.32;;;;;;;;;;5005959;28;20057;-56
2021/08/06 08:42:43;;;;;;;22.80;11.77;;;;;;;;;;5004143;28;20549;-55
2021/08/06 08:45:09;;;;;;;23.42;11.73;;;;;;;;;;5007498;28;20048;-54
2021/08/06 08:47:36;;;;;;;20.73;11.30;;;;;;;;;;4993982;28;20539;-55
2021/08/06 08:50:03;;;;;;;22.73;12.20;;;;;;;;;;5007084;28;20054;-55
2021/08/06 08:52:28;;;;;;;28.38;12.27;;;;;;;;;;5005287;28;20128;-56
2021/08/06 08:54:54;;;;;;;23.63;12.13;;;;;;;;;;5007446;28;20068;-53
2021/08/06 08:57:21;;;;;;;26.65;12.20;;;;;;;;;;5006729;28;20046;-55
2021/08/06 08:59:47;;;;;;;22.60;11.98;;;;;;;;;;5006900;28;20046;-52
2021/08/06 09:02:14;;;;;;;25.13;12.02;;;;;;;;;;5007336;28;20067;-52
2021/08/06 09:04:40;;;;;;;23.48;12.68;;;;;;;;;;4995764;28;20042;-54
2021/08/06 09:07:06;;;;;;;21.55;11.77;;;;;;;;;;5008421;28;20048;-55
2021/08/06 09:09:32;;;;;;;27.02;12.30;;;;;;;;;;5006342;28;20061;-55
2021/08/06 09:12:06;;;;;;;24.50;12.70;;;;;;;;;;5006506;28;20037;-54
2021/08/06 09:14:33;;;;;;;24.40;12.18;;;;;;;;;;5006671;28;20184;-53
2021/08/06 09:17:03;;;;;;;22.70;11.98;;;;;;;;;;5007309;28;20128;-55
2021/08/06 09:19:49;;;;;;;22.85;12.07;;;;;;;;;;5005401;28;20096;-54
2021/08/06 09:22:17;;;;;;;20.90;11.63;;;;;;;;;;5005044;28;20084;-55
2021/08/06 09:25:03;;;;;;;20.95;12.18;;;;;;;;;;5005974;28;20033;-54
2021/08/06 09:27:32;;;;;;;21.67;11.93;;;;;;;;;;5006914;28;20769;-53
2021/08/06 09:29:58;;;;;;;23.02;12.40;;;;;;;;;;5006535;28;20522;-52
2021/08/06 09:32:24;;;;;;;21.63;11.55;;;;;;;;;;5003871;28;20091;-53
2021/08/06 09:34:50;;;;;;;23.58;12.70;;;;;;;;;;5006594;28;20837;-55
2021/08/06 09:37:21;;;;;;;22.90;12.18;;;;;;;;;;5005853;28;20037;-56
2021/08/06 09:39:54;;;;;;;22.02;11.35;;;;;;;;;;5004828;28;20041;-55
2021/08/06 09:42:23;;;;;;;21.50;12.43;;;;;;;;;;5005628;28;20072;-56
2021/08/06 09:44:58;;;;;;;20.85;12.70;;;;;;;;;;5006009;28;20057;-55
2021/08/06 09:47:24;;;;;;;23.02;12.13;;;;;;;;;;5005688;28;20068;-55
2021/08/06 09:49:55;;;;;;;29.55;13.95;;;;;;;;;;5006320;28;20084;-54
2021/08/06 09:52:31;;;;;;;27.58;12.63;;;;;;;;;;5005442;28;20033;-54
2021/08/06 09:54:57;;;;;;;27.45;12.55;;;;;;;;;;5006418;28;20979;-52
2021/08/06 09:57:23;;;;;;;23.15;12.65;;;;;;;;;;5005785;28;20042;-54
2021/08/06 09:59:50;;;;;;;25.92;12.82;;;;;;;;;;5006638;28;20038;-54
2021/08/06 10:02:16;;;;;;;24.13;13.57;;;;;;;;;;5005518;28;20605;-55
2021/08/06 10:04:55;;;;;;;26.73;13.38;;;;;;;;;;5006870;28;20072;-52
2021/08/06 10:07:21;;;;;;;28.45;13.52;;;;;;;;;;5004584;28;20184;-55
2021/08/06 10:09:47;;;;;;;26.45;13.27;;;;;;;;;;5006171;28;20980;-53
2021/08/06 10:12:13;;;;;;;23.02;11.85;;;;;;;;;;5006173;28;20121;-54
2021/08/06 10:14:39;;;;;;;27.25;13.70;;;;;;;;;;4988104;28;20104;-56
2021/08/06 10:17:05;;;;;;;24.02;13.60;;;;;;;;;;5009130;28;20042;-53
2021/08/06 10:19:30;;;;;;;21.90;13.05;;;;;;;;;;5007354;28;20067;-53
2021/08/06 10:21:56;;;;;;;25.42;13.30;;;;;;;;;;5010849;28;20038;-54
2021/08/06 10:24:22;;;;;;;26.05;13.40;;;;;;;;;;5010163;28;20072;-56
2021/08/06 10:26:48;;;;;;;30.13;14.15;;;;;;;;;;5010269;28;20984;-55
2021/08/06 10:29:18;;;;;;;24.35;13.40;;;;;;;;;;5010476;28;20061;-56
2021/08/06 10:32:04;;;;;;;25.58;13.45;;;;;;;;;;5010082;28;20046;-56
2021/08/06 10:34:30;;;;;;;28.73;14.82;;;;;;;;;;5009142;28;20052;-54
2021/08/06 10:36:55;;;;;;;23.63;13.35;;;;;;;;;;5010142;28;20045;-55
2021/08/06 10:39:30;;;;;;;31.65;15.20;;;;;;;;;;5009913;28;20883;-56
2021/08/06 10:41:57;;;;;;;33.92;14.93;;;;;;;;;;5009281;28;20115;-54
2021/08/06 10:44:23;;;;;;;31.17;14.38;;;;;;;;;;5009418;28;20049;-55
2021/08/06 10:47:02;;;;;;;25.67;14.00;;;;;;;;;;5009064;28;20049;-52
2021/08/06 10:49:29;;;;;;;24.50;14.25;;;;;;;;;;5010688;28;20046;-56
2021/08/06 10:52:15;;;;;;;24.48;13.75;;;;;;;;;;5010264;28;20038;-53
2021/08/06 10:54:41;;;;;;;27.02;14.57;;;;;;;;;;5007310;28;20458;-54
2021/08/06 10:57:28;;;;;;;28.45;14.60;;;;;;;;;;5007579;28;20045;-53
2021/08/06 10:59:54;;;;;;;24.10;13.27;;;;;;;;;;5008176;28;20038;-53
2021/08/06 11:02:37;;;;;;;27.70;14.20;;;;;;;;;;5008367;28;20645;-55
2021/08/06 11:05:23;;;;;;;28.42;14.27;;;;;;;;;;5008582;28;20038;-55
2021/08/06 11:07:48;;;;;;;24.98;13.63;;;;;;;;;;4994268;28;20905;-52
2021/08/06 11:10:33;;;;;;;28.90;15.60;;;;;;;;;;5007676;28;20237;-52
2021/08/06 11:12:58;;;;;;;30.80;13.93;;;;;;;;;;5009329;28;20987;-55
2021/08/06 11:15:44;;;;;;;29.50;15.05;;;;;;;;;;5008769;28;20049;-53
2021/08/06 11:18:10;;;;;;;27.05;15.30;;;;;;;;;;5008410;28;20554;-56
2021/08/06 11:20:38;;;;;;;31.35;15.70;;;;;;;;;;5005863;28;20041;-55
2021/08/06 11:23:09;;;;;;;28.10;15.68;;;;;;;;;;5008268;28;20064;-56
2021/08/06 11:25:35;;;;;;;29.85;15.40;;;;;;;;;;5006814;28;20045;-56
2021/08/06 11:28:01;;;;;;;30.20;14.45;;;;;;;;;;5004411;28;20042;-56
2021/08/06 11:30:29;;;;;;;27.65;14.77;;;;;;;;;;5007001;28;20044;-54
2021/08/06 11:33:02;;;;;;;31.60;15.15;;;;;;;;;;5008109;28;20045;-55
2021/08/06 11:35:35;;;;;;;30.92;15.55;;;;;;;;;;5006321;28;20108;-55
2021/08/06 11:38:11;;;;;;;30.20;15.57;;;;;;;;;;5007804;28;20402;-55
2021/08/06 11:40:38;;;;;;;31.85;15.75;;;;;;;;;;5006024;28;20088;-55
2021/08/06 11:43:12;;;;;;;31.88;15.88;;;;;;;;;;5006335;28;20050;-54
2021/08/06 11:45:38;;;;;;;33.38;16.50;;;;;;;;;;5006128;28;20187;-54
2021/08/06 11:48:04;;;;;;;28.00;16.10;;;;;;;;;;5006425;28;20070;-52
2021/08/06 11:50:37;;;;;;;29.55;16.10;;;;;;;;;;5006849;28;20050;-55
2021/08/06 11:53:09;;;;;;;34.53;16.67;;;;;;;;;;5009043;28;20141;-53
2021/08/06 11:55:35;;;;;;;35.08;17.67;;;;;;;;;;5007713;28;20098;-55
2021/08/06 11:58:01;;;;;;;33.25;16.35;;;;;;;;;;5007108;28;20117;-55
2021/08/06 12:00:28;;;;;;;29.52;15.93;;;;;;;;;;5006220;28;20053;-55
2021/08/06 12:03:06;;;;;;;36.05;17.00;;;;;;;;;;5007063;28;20081;-54
2021/08/06 12:05:32;;;;;;;29.90;16.90;;;;;;;;;;5005282;28;20038;-54
2021/08/06 12:07:58;;;;;;;33.78;17.40;;;;;;;;;;5007873;28;20030;-52
2021/08/06 12:10:28;;;;;;;34.95;17.85;;;;;;;;;;5006028;28;20061;-54
2021/08/06 12:12:54;;;;;;;36.08;17.25;;;;;;;;;;5008509;28;20049;-55
2021/08/06 12:15:21;;;;;;;34.45;17.63;;;;;;;;;;5006483;28;20045;-55
2021/08/06 12:17:47;;;;;;;36.55;18.38;;;;;;;;;;4997298;28;20056;-55
2021/08/06 12:20:13;;;;;;;30.55;16.70;;;;;;;;;;5006723;28;20107;-56
2021/08/06 12:22:42;;;;;;;34.83;18.45;;;;;;;;;;5005236;28;20045;-56
2021/08/06 12:25:14;;;;;;;34.88;17.92;;;;;;;;;;5006870;28;20076;-55
2021/08/06 12:27:40;;;;;;;35.03;18.75;;;;;;;;;;5006334;28;20521;-55
2021/08/06 12:30:28;;;;;;;35.50;18.23;;;;;;;;;;5008845;28;20169;-57
2021/08/06 12:32:54;;;;;;;37.08;18.30;;;;;;;;;;5005783;28;20046;-53
2021/08/06 12:35:21;;;;;;;35.38;16.98;;;;;;;;;;5005824;28;20827;-57
2021/08/06 12:37:47;;;;;;;39.30;19.52;;;;;;;;;;5007426;28;20056;-55
2021/08/06 12:40:13;;;;;;;30.02;17.83;;;;;;;;;;5006996;28;20042;-55
2021/08/06 12:42:39;;;;;;;31.90;18.40;;;;;;;;;;5006727;28;20037;-55
2021/08/06 12:45:16;;;;;;;36.35;18.45;;;;;;;;;;5006716;28;20124;-56
2021/08/06 12:47:49;;;;;;;33.30;18.35;;;;;;;;;;5005760;28;20048;-56
2021/08/06 12:50:21;;;;;;;40.38;19.42;;;;;;;;;;5006463;28;20506;-57
2021/08/06 12:52:57;;;;;;;36.38;19.13;;;;;;;;;;5006084;28;20054;-54
2021/08/06 12:55:23;;;;;;;38.22;19.20;;;;;;;;;;5006408;28;20104;-56
2021/08/06 12:57:50;;;;;;;42.75;20.15;;;;;;;;;;5005848;28;20046;-54
2021/08/06 13:00:17;;;;;;;34.30;18.58;;;;;;;;;;5007843;28;20033;-56
2021/08/06 13:02:44;;;;;;;37.25;20.13;;;;;;;;;;5004939;28;20033;-56
2021/08/06 13:05:11;;;;;;;36.63;19.00;;;;;;;;;;4989318;28;20494;-55
2021/08/06 13:07:38;;;;;;;38.47;19.08;;;;;;;;;;5007146;28;20038;-56
2021/08/06 13:10:23;;;;;;;38.00;20.55;;;;;;;;;;5006591;28;20049;-56
2021/08/06 13:12:49;;;;;;;36.15;19.42;;;;;;;;;;5006642;28;20827;-55
2021/08/06 13:15:15;;;;;;;36.72;19.20;;;;;;;;;;5006183;28;22047;-56
2021/08/06 13:17:40;;;;;;;35.97;19.38;;;;;;;;;;5004652;28;20034;-54
2021/08/06 13:20:07;;;;;;;38.55;20.15;;;;;;;;;;5005982;28;20493;-52
2021/08/06 13:22:32;;;;;;;34.40;19.30;;;;;;;;;;5005521;28;20047;-57
2021/08/06 13:24:58;;;;;;;38.45;21.08;;;;;;;;;;5005922;28;20849;-57
2021/08/06 13:27:24;;;;;;;40.08;19.75;;;;;;;;;;5005166;28;20046;-57
2021/08/06 13:29:50;;;;;;;33.85;20.02;;;;;;;;;;5006521;28;20050;-56
2021/08/06 13:32:16;;;;;;;41.20;21.85;;;;;;;;;;5007382;28;20058;-57
2021/08/06 13:34:42;;;;;;;36.45;20.33;;;;;;;;;;5005912;28;21724;-56
2021/08/06 13:37:08;;;;;;;37.10;20.10;;;;;;;;;;4988067;28;20056;-57
2021/08/06 13:39:34;;;;;;;36.75;20.45;;;;;;;;;;5005395;28;20502;-53
2021/08/06 13:42:00;;;;;;;38.20;21.20;;;;;;;;;;5006560;28;20789;-57
2021/08/06 13:44:26;;;;;;;43.83;22.35;;;;;;;;;;5005853;28;20487;-57
2021/08/06 13:46:52;;;;;;;44.35;21.05;;;;;;;;;;5005638;28;20056;-53
2021/08/06 13:49:18;;;;;;;41.25;21.65;;;;;;;;;;5007168;28;20048;-57
2021/08/06 13:51:44;;;;;;;43.22;22.02;;;;;;;;;;5009143;28;20048;-55
2021/08/06 13:54:10;;;;;;;44.70;22.10;;;;;;;;;;5011434;28;20041;-57
2021/08/06 13:56:36;;;;;;;44.15;20.55;;;;;;;;;;5010182;28;20103;-54
2021/08/06 13:59:03;;;;;;;40.72;22.65;;;;;;;;;;5009476;28;20441;-54
2021/08/06 14:01:28;;;;;;;43.95;22.88;;;;;;;;;;5008427;28;20793;-56
2021/08/06 14:03:54;;;;;;;42.10;23.90;;;;;;;;;;5010825;28;20040;-58
2021/08/06 14:06:20;;;;;;;42.58;21.75;;;;;;;;;;5007994;28;20045;-56
2021/08/06 14:08:46;;;;;;;52.47;24.38;;;;;;;;;;5010133;28;20058;-57
2021/08/06 14:11:12;;;;;;;43.22;22.80;;;;;;;;;;5010589;28;20049;-56
2021/08/06 14:13:38;;;;;;;46.20;22.52;;;;;;;;;;5009497;28;20620;-55
2021/08/06 14:16:04;;;;;;;43.33;23.67;;;;;;;;;;5009703;28;20038;-57
2021/08/06 14:18:32;;;;;;;39.50;22.90;;;;;;;;;;5010890;28;20049;-57